• Join FlightAware (Why Join?)
  • Login
  • US Flag 
04:23PM EDT


 

Airport Tracker/Info


-or-


 

Live Flight TrackerFlight Track Log ✈ GJS3621 ✈ 31-Aug-2014 ✈ KRDU - KORD

Flight Track Log - Related Links

Times and Time Zones

All times are in EDT time to prevent confusion due to time zone crossing. See the GJS3621 flight status page for this flight to view local times or setup timezone preferences in your user account.

Time Position Orientation Groundspeed Altitude Reporting Facility
EDT Latitude Longitude Course Direction KTS MPH feet Rate Location/Type
04:15PM 35.8653 -78.8133 229° Southwest 158 182 1,600  Level Washington Center
04:16PM 35.8417 -78.8464 229° Southwest 192 221 2,500 1,800 Climbing Washington Center
04:17PM 35.8350 -78.9228 264° West 243 280 4,700 2,220 Climbing Washington Center
04:18PM 35.8344 -79.0133 270° West 249 287 7,300 2,400 Climbing Washington Center
04:19PM 35.8364 -79.1156 271° West 272 313 9,900 1,680 Climbing Washington Center
04:20PM 35.8361 -79.2211 270° West 320 368 10,900 1,440 Climbing Washington Center
04:21PM 35.8342 -79.3447 269° West 335 386 13,000 1,920 Climbing Washington Center
04:22PM 35.8225 -79.4683 263° West 351 404 14,900 1,680 Climbing Washington Center
04:23PM 35.8092 -79.5894 262° West 355 409 16,500 1,440 Climbing Washington Center
04:24PM 35.7875 -79.7122 258° West 363 418 17,900 1,440 Climbing Washington Center
04:25PM 35.7653 -79.8364 258° West 370 426 19,300 1,380 Climbing Atlanta Center
04:26PM 35.7422 -79.9606 257° West 377 434 20,600 1,260 Climbing Atlanta Center
04:27PM 35.7194 -80.0947 258° West 382 440 21,900 1,200 Climbing Atlanta Center
04:28PM 35.6986 -80.2233 259° West 388 447 23,100 1,140 Climbing Atlanta Center
04:29PM 35.6772 -80.3394 257° West 393 452 24,200 1,140 Climbing Atlanta Center
04:30PM 35.6769 -80.4750 270° West 393 452 25,400 1,140 Climbing Atlanta Center
04:31PM 35.7531 -80.5792 312° West 374 430 26,500 1,140 Climbing Atlanta Center
04:32PM 35.8328 -80.6783 315° West 387 445 27,700 960 Climbing Atlanta Center
04:33PM 35.9192 -80.7797 316° Northwest 402 463 28,500 780 Climbing Atlanta Center
04:34PM 36.0031 -80.8817 316° Northwest 415 478 29,300 780 Climbing Atlanta Center
04:35PM 36.0850 -80.9839 315° West 420 483 30,100 780 Climbing Atlanta Center
04:36PM 36.1708 -81.0911 315° West 425 489 30,900 660 Climbing Atlanta Center
04:37PM 36.2547 -81.1961 315° West 425 489 31,500 720 Climbing Atlanta Center
04:38PM 36.3428 -81.3014 316° Northwest 425 489 32,400 840 Climbing Atlanta Center
04:39PM 36.4283 -81.4094 315° West 431 496 33,200 720 Climbing Atlanta Center
04:41PM 36.5758 -81.5950 315° West 436 502 34,400 660 Climbing Indianapolis Center
04:42PM 36.6617 -81.7025 315° West 436 502 35,100 660 Climbing Indianapolis Center
04:43PM 36.7478 -81.8106 315° West 436 502 35,800 420 Climbing Indianapolis Center
04:44PM 36.8472 -81.9372 314° West 436 502 36,000 60 Climbing Indianapolis Center
04:45PM 36.9342 -82.0467 315° West 440 506 36,000  Level Indianapolis Center
04:46PM 37.0200 -82.1553 315° West 441 507 36,000  Level Indianapolis Center
04:47PM 37.1033 -82.2614 315° West 436 502 36,000  Level Indianapolis Center
04:48PM 37.1864 -82.3672 315° West 432 497 36,000  Level Indianapolis Center
04:49PM 37.2683 -82.4739 314° West 431 496 36,000  Level Indianapolis Center
04:50PM 37.3514 -82.5811 314° West 431 496 36,000  Level Indianapolis Center
04:51PM 37.4339 -82.6897 314° West 431 496 36,000  Level Indianapolis Center
04:52PM 37.5189 -82.8272 308° West 430 495 36,000  Level Indianapolis Center
04:53PM 37.5917 -82.9442 308° West 429 494 36,000  Level Indianapolis Center
04:54PM 37.6672 -83.0594 310° West 429 494 36,000  Level Indianapolis Center
04:55PM 37.7519 -83.1658 315° West 433 498 36,000  Level Indianapolis Center
04:56PM 37.8367 -83.2747 315° West 433 498 36,000  Level Indianapolis Center
04:57PM 37.9228 -83.3811 316° Northwest 433 498 36,000  Level Indianapolis Center
04:58PM 38.0072 -83.4864 316° Northwest 431 496 36,000  Level Indianapolis Center
04:59PM 38.0911 -83.5961 314° West 429 494 36,000  Level Indianapolis Center
05:00PM 38.1747 -83.6989 316° Northwest 425 489 36,000  Level Indianapolis Center
05:01PM 38.2714 -83.8236 315° West 425 489 36,000  Level Indianapolis Center
05:02PM 38.3614 -83.9211 320° Northwest 425 489 36,000  Level Indianapolis Center
05:03PM 38.4656 -84.0006 329° Northwest 432 497 36,000  Level Indianapolis Center
05:04PM 38.5675 -84.0836 328° Northwest 432 497 36,000  Level Indianapolis Center
05:05PM 38.6686 -84.1639 328° Northwest 432 497 36,000  Level Indianapolis Center
05:06PM 38.7694 -84.2456 328° Northwest 431 496 36,000  Level Indianapolis Center
05:07PM 38.8703 -84.3272 328° Northwest 431 496 36,000 -720 Level Indianapolis Center
05:08PM 38.9742 -84.4106 328° Northwest 432 497 34,600 -1,560 Descending Indianapolis Center
05:09PM 39.0767 -84.4950 327° Northwest 435 501 32,900 -1,920 Descending Indianapolis Center
05:10PM 39.1753 -84.5767 327° Northwest 429 494 30,700 -1,620 Descending Indianapolis Center
05:11PM 39.2742 -84.6567 328° Northwest 424 488 29,700 -1,020 Descending Indianapolis Center
05:12PM 39.3706 -84.7353 328° Northwest 415 478 28,700 -840 Descending Indianapolis Center
05:13PM 39.4639 -84.8122 328° Northwest 404 465 28,000 -360 Descending Indianapolis Center
05:14PM 39.5636 -84.8947 327° Northwest 389 448 28,000  Level Indianapolis Center
05:15PM 39.6525 -84.9683 327° Northwest 386 444 28,000  Level Indianapolis Center
05:16PM 39.7425 -85.0433 327° Northwest 386 444 28,000 -300 Level Indianapolis Center
05:17PM 39.8314 -85.1175 327° Northwest 385 443 27,400 -840 Descending Indianapolis Center
05:18PM 39.9186 -85.1933 326° Northwest 384 442 26,400 -720 Descending Indianapolis Center
05:19PM 40.0294 -85.2867 327° Northwest 390 449 26,000 -240 Descending Indianapolis Center
05:20PM 40.1333 -85.3728 328° Northwest 426 490 26,000  Level Indianapolis Center
05:21PM 40.2364 -85.4594 327° Northwest 440 506 26,000 -300 Level Indianapolis Center
05:22PM 40.3369 -85.5464 327° Northwest 439 505 25,500 -780 Descending Indianapolis Center
05:23PM 40.4167 -85.6111 328° Northwest 435 501 24,700 -840 Descending Chicago Center
05:24PM 40.5194 -85.6861 331° Northwest 429 494 24,000 -360 Descending Chicago Center
05:25PM 40.6111 -85.7742 324° Northwest 424 488 24,000 -180 Level Chicago Center
05:26PM 40.6844 -85.9114 305° West 424 488 23,700 -540 Descending Chicago Center
05:27PM 40.7517 -86.0372 305° West 422 486 23,000 -360 Descending Chicago Center
05:28PM 40.8208 -86.1658 305° West 428 493 23,000  Level Chicago Center
05:29PM 40.8919 -86.2981 305° West 438 504 23,000  Level Chicago Center
05:30PM 40.9631 -86.4308 305° West 439 505 23,000  Level Chicago Center
05:31PM 41.0344 -86.5639 305° West 441 507 23,000 -1,380 Level Chicago Center
05:32PM 41.1178 -86.7228 305° West 438 504 20,200 -3,000 Descending Chicago Center
05:33PM 41.1875 -86.8553 305° West 415 478 16,900 -3,000 Descending Chicago Center
05:34PM 41.2514 -86.9772 305° West 406 467 14,100 -2,280 Descending Chicago Center
05:36PM 41.3125 -87.0947 305° West 390 449 12,300 -1,500 Descending Chicago Center
05:37PM 41.3825 -87.2106 309° West 372 428 11,000 -660 Descending Chicago Center
05:38PM 41.4461 -87.2889 317° Northwest 305 351 11,000  Level Chicago Center
05:39PM 41.5108 -87.3656 318° Northwest 292 336 11,000 -360 Level Chicago Center
05:40PM 41.5781 -87.4250 327° Northwest 292 336 10,300 -1,260 Descending Chicago Center
05:41PM 41.6461 -87.4864 326° Northwest 276 318 8,500 -1,140 Descending Chicago Center
05:42PM 41.7042 -87.5467 322° Northwest 269 310 8,000 -780 Descending Chicago Center
05:43PM 41.7789 -87.5658 349° North 256 295 7,000 -780 Descending Chicago Center
05:44PM 41.8425 -87.5642 North 231 266 6,400 -1,200 Descending Chicago Center
05:45PM 41.8972 -87.6061 330° Northwest 231 266 4,600 -1,380 Descending Chicago Center
05:46PM 41.9292 -87.6844 299° West 223 257 3,600 -960 Descending Chicago Center
05:47PM 41.9556 -87.7522 298° West 208 239 2,700 -900 Descending Chicago Center
05:48PM 41.9667 -87.8175 283° West 158 182 1,800 -840 Descending Chicago Center
05:49PM 41.9664 -87.8697 270° West 145 167 1,100 -540 Descending Chicago Center
05:50PM 41.9664 -87.9269 270° West 144 166 800 -300 Descending Chicago Center